Time;durP1;ratioP1;P1;durP2;ratioP2;P2;SDS_P1;SDS_P2;PMS_P1;PMS_P2;Temp;Humidity;BMP_temperature;BMP_pressure;BME280_temperature;BME280_humidity;BME280_pressure;Samples;Min_cycle;Max_cycle;Signal;HPM_P1;HPM_P2
2023/12/26 00:01:50;;;;;;;2.47;1.55;;;9.20;99.90;;;;;;4977678;28;20534;-92
2023/12/26 00:04:16;;;;;;;2.67;1.65;;;9.20;99.90;;;;;;4979710;28;20092;-92
2023/12/26 00:06:44;;;;;;;3.20;1.60;;;9.20;99.90;;;;;;4994348;28;20101;-93
2023/12/26 00:09:15;;;;;;;10.88;2.35;;;9.20;99.90;;;;;;4977673;28;20045;-91
2023/12/26 00:11:45;;;;;;;4.28;1.45;;;9.10;99.90;;;;;;4978091;28;20048;-92
2023/12/26 00:14:12;;;;;;;1.63;1.52;;;9.10;99.90;;;;;;4977125;28;20057;-92
2023/12/26 00:16:40;;;;;;;4.60;1.80;;;9.10;99.90;;;;;;4977652;28;20041;-93
2023/12/26 00:19:05;;;;;;;6.55;1.90;;;9.10;99.90;;;;;;4994817;28;20022;-92
2023/12/26 00:21:31;;;;;;;3.47;1.83;;;9.10;99.90;;;;;;4977658;28;20149;-92
2023/12/26 00:23:57;;;;;;;2.65;1.52;;;9.10;99.90;;;;;;4977064;28;20026;-92
2023/12/26 00:26:22;;;;;;;3.22;1.60;;;9.10;99.90;;;;;;4977361;28;20492;-93
2023/12/26 00:28:48;;;;;;;3.85;1.75;;;9.10;99.90;;;;;;4977165;28;20754;-92
2023/12/26 00:31:13;;;;;;;3.22;1.58;;;9.10;99.90;;;;;;4977004;28;20500;-92
2023/12/26 00:33:39;;;;;;;3.83;1.75;;;9.10;99.90;;;;;;4994144;28;20036;-92
2023/12/26 00:36:05;;;;;;;9.25;2.00;;;9.10;99.90;;;;;;4994506;28;20033;-92
2023/12/26 00:38:30;;;;;;;5.38;1.95;;;9.10;99.90;;;;;;4977044;28;20661;-92
2023/12/26 00:40:56;;;;;;;7.32;2.08;;;9.10;99.90;;;;;;4977238;28;20084;-92
2023/12/26 00:43:22;;;;;;;2.08;1.73;;;9.10;99.90;;;;;;4993914;28;20062;-91
2023/12/26 00:45:47;;;;;;;4.88;1.95;;;9.10;99.90;;;;;;4977196;28;20030;-93
2023/12/26 00:48:13;;;;;;;2.83;1.75;;;9.10;99.90;;;;;;4977067;28;20475;-91
2023/12/26 00:50:41;;;;;;;2.22;1.45;;;9.10;99.90;;;;;;4977072;28;20165;-92
2023/12/26 00:53:10;;;;;;;3.83;1.90;;;9.10;99.90;;;;;;4993858;28;20109;-93
2023/12/26 00:55:36;;;;;;;2.85;1.50;;;9.10;99.90;;;;;;4983060;28;20518;-92
2023/12/26 00:58:01;;;;;;;5.15;2.35;;;9.10;99.90;;;;;;4976751;28;20031;-92
2023/12/26 01:00:27;;;;;;;2.85;1.70;;;9.10;99.90;;;;;;4994335;28;20088;-92
2023/12/26 01:02:53;;;;;;;1.80;1.48;;;9.10;99.90;;;;;;4993564;28;20023;-92
2023/12/26 01:05:18;;;;;;;3.08;1.75;;;9.10;99.90;;;;;;4984743;28;20027;-92
2023/12/26 01:07:44;;;;;;;5.00;1.85;;;9.10;99.90;;;;;;4976948;28;20420;-93
2023/12/26 01:10:09;;;;;;;3.70;1.65;;;9.10;99.90;;;;;;4976528;28;20033;-92
2023/12/26 01:12:35;;;;;;;7.05;1.73;;;9.10;99.90;;;;;;4976619;28;20213;-92
2023/12/26 01:15:01;;;;;;;4.47;1.75;;;9.10;99.90;;;;;;4976235;28;20022;-92
2023/12/26 01:17:26;;;;;;;4.07;2.35;;;9.10;99.90;;;;;;4976669;28;20592;-92
2023/12/26 01:19:52;;;;;;;6.95;2.15;;;9.10;99.90;;;;;;4976447;28;20026;-91
2023/12/26 01:22:17;;;;;;;4.82;1.75;;;9.10;99.90;;;;;;4993676;28;20035;-92
2023/12/26 01:24:43;;;;;;;4.95;2.58;;;9.10;99.90;;;;;;4972807;28;20162;-92
2023/12/26 01:27:09;;;;;;;4.95;1.50;;;9.10;99.90;;;;;;4976052;28;20029;-92
2023/12/26 01:29:34;;;;;;;1.77;1.65;;;9.10;99.90;;;;;;4993609;28;20027;-92
2023/12/26 01:32:01;;;;;;;3.80;2.08;;;9.10;99.90;;;;;;4979830;28;20022;-91
2023/12/26 01:34:26;;;;;;;3.60;1.80;;;9.10;99.90;;;;;;4976090;28;20161;-91
2023/12/26 01:36:52;;;;;;;3.75;2.22;;;9.10;99.90;;;;;;4976119;28;20066;-92
2023/12/26 01:39:17;;;;;;;9.38;2.05;;;9.10;99.90;;;;;;4976364;28;20030;-92
2023/12/26 01:41:43;;;;;;;3.05;1.85;;;9.00;99.90;;;;;;4975933;28;20041;-92
2023/12/26 01:44:08;;;;;;;3.13;1.60;;;9.10;99.90;;;;;;4975672;28;20034;-91
2023/12/26 01:46:35;;;;;;;3.35;1.95;;;9.10;99.90;;;;;;4976018;28;20147;-92
2023/12/26 01:49:00;;;;;;;4.65;2.33;;;9.10;99.90;;;;;;4981591;28;20030;-92
2023/12/26 01:51:28;;;;;;;5.22;2.05;;;9.10;99.90;;;;;;4993362;28;20078;-93
2023/12/26 01:53:54;;;;;;;6.13;2.28;;;9.00;99.90;;;;;;4972737;28;20031;-92
2023/12/26 01:56:21;;;;;;;2.78;1.70;;;9.10;99.90;;;;;;4976401;28;20550;-92
2023/12/26 01:58:48;;;;;;;6.82;2.10;;;9.10;99.90;;;;;;4976547;28;20036;-92
2023/12/26 02:01:15;;;;;;;3.05;2.03;;;9.00;99.90;;;;;;4983782;28;20438;-92
2023/12/26 02:03:41;;;;;;;3.15;1.45;;;9.00;99.90;;;;;;4978545;28;20399;-92
2023/12/26 02:06:07;;;;;;;5.07;1.85;;;9.00;99.90;;;;;;4993171;28;20022;-93
2023/12/26 02:08:34;;;;;;;3.05;2.10;;;9.00;99.90;;;;;;4976020;28;20023;-92
2023/12/26 02:10:59;;;;;;;3.42;2.20;;;9.00;99.90;;;;;;4975822;28;20030;-92
2023/12/26 02:13:25;;;;;;;3.85;1.98;;;9.00;99.90;;;;;;4992682;28;20084;-91
2023/12/26 02:15:54;;;;;;;4.10;1.80;;;9.00;99.90;;;;;;4975856;28;20030;-92
2023/12/26 02:18:19;;;;;;;7.30;1.77;;;9.00;99.90;;;;;;4975782;28;20125;-91
2023/12/26 02:20:45;;;;;;;3.88;1.75;;;9.00;99.90;;;;;;4992914;28;20472;-94
2023/12/26 02:23:10;;;;;;;8.70;1.40;;;9.00;99.90;;;;;;4992649;28;20027;-92
2023/12/26 02:25:36;;;;;;;3.50;1.70;;;9.00;99.90;;;;;;4975734;28;20102;-92
2023/12/26 02:28:05;;;;;;;6.00;1.83;;;9.00;99.90;;;;;;4977554;28;20267;-92
2023/12/26 02:30:31;;;;;;;5.63;1.92;;;9.00;99.90;;;;;;4986199;28;20096;-92
2023/12/26 02:33:01;;;;;;;10.32;2.08;;;9.00;99.90;;;;;;4978853;28;20121;-92
2023/12/26 02:35:28;;;;;;;6.05;2.08;;;9.00;99.90;;;;;;4980329;28;20030;-92
2023/12/26 02:37:54;;;;;;;3.35;1.85;;;9.00;99.90;;;;;;4979348;28;20037;-92
2023/12/26 02:40:19;;;;;;;5.30;1.55;;;9.00;99.90;;;;;;4996501;28;20030;-91
2023/12/26 02:42:45;;;;;;;2.55;1.73;;;9.00;99.90;;;;;;4978899;28;20037;-92
2023/12/26 02:45:11;;;;;;;3.33;1.65;;;9.00;99.90;;;;;;4978870;28;20562;-92
2023/12/26 02:47:36;;;;;;;3.05;1.90;;;9.00;99.90;;;;;;4979189;28;20106;-92
2023/12/26 02:50:02;;;;;;;5.30;1.98;;;9.00;99.90;;;;;;4978863;28;20018;-92
2023/12/26 02:52:28;;;;;;;2.35;1.60;;;9.00;99.90;;;;;;4979189;28;20027;-92
2023/12/26 02:54:53;;;;;;;3.80;1.80;;;9.00;99.90;;;;;;4996241;28;20025;-92
2023/12/26 02:57:19;;;;;;;3.35;1.75;;;9.00;99.90;;;;;;4979145;28;20503;-92
2023/12/26 02:59:44;;;;;;;1.92;1.70;;;9.00;99.90;;;;;;4983815;28;20105;-92
2023/12/26 03:02:10;;;;;;;6.32;2.13;;;9.00;99.90;;;;;;4983153;28;20037;-93
2023/12/26 03:04:36;;;;;;;2.78;1.70;;;9.00;99.90;;;;;;4995697;28;20014;-92
2023/12/26 03:07:01;;;;;;;3.33;1.88;;;9.00;99.90;;;;;;4996146;28;20021;-92
2023/12/26 03:09:27;;;;;;;3.88;1.90;;;9.00;99.90;;;;;;4978783;28;20062;-91
2023/12/26 03:11:52;;;;;;;4.15;1.88;;;9.00;99.90;;;;;;4987179;28;20101;-94
2023/12/26 03:14:18;;;;;;;2.95;1.83;;;9.00;99.90;;;;;;4977007;28;20525;-92
2023/12/26 03:16:44;;;;;;;4.65;1.85;;;9.00;99.90;;;;;;4995983;28;20415;-93
2023/12/26 03:19:09;;;;;;;2.53;1.70;;;9.00;99.90;;;;;;4977016;28;20026;-92
2023/12/26 03:21:35;;;;;;;2.40;1.55;;;9.00;99.90;;;;;;4978703;28;20542;-91
2023/12/26 03:24:00;;;;;;;1.98;1.50;;;9.10;99.90;;;;;;4978601;28;20022;-92
2023/12/26 03:26:26;;;;;;;3.67;1.70;;;9.00;99.90;;;;;;4995626;28;20024;-93
2023/12/26 03:28:52;;;;;;;7.28;2.05;;;9.00;99.90;;;;;;4995491;28;20027;-92
2023/12/26 03:31:17;;;;;;;1.98;1.60;;;9.00;99.90;;;;;;4986128;28;20018;-92
2023/12/26 03:33:43;;;;;;;3.20;1.95;;;9.00;99.90;;;;;;4976636;28;20084;-92
2023/12/26 03:36:09;;;;;;;2.63;1.73;;;9.00;99.90;;;;;;4978285;28;20037;-92
2023/12/26 03:38:37;;;;;;;6.75;1.50;;;9.10;99.90;;;;;;4978316;28;20327;-93
2023/12/26 03:41:03;;;;;;;2.45;1.73;;;9.00;99.90;;;;;;4976796;28;20053;-93
2023/12/26 03:43:29;;;;;;;2.72;1.75;;;9.00;99.90;;;;;;4978005;28;20500;-91
2023/12/26 03:45:54;;;;;;;2.10;1.77;;;9.00;99.90;;;;;;4978171;28;20106;-92
2023/12/26 03:48:20;;;;;;;7.72;1.95;;;9.00;99.90;;;;;;4983920;28;20475;-92
2023/12/26 03:50:46;;;;;;;2.33;1.60;;;9.00;99.90;;;;;;4981236;28;20049;-94
2023/12/26 03:53:11;;;;;;;3.28;1.88;;;9.00;99.90;;;;;;4977548;28;20125;-92
2023/12/26 03:55:37;;;;;;;2.50;1.63;;;9.10;99.90;;;;;;4978073;28;20036;-91
2023/12/26 03:58:02;;;;;;;2.75;1.63;;;9.00;99.90;;;;;;4978475;28;20053;-94
2023/12/26 04:00:29;;;;;;;2.97;1.77;;;9.00;99.90;;;;;;4977754;28;20129;-92
2023/12/26 04:02:55;;;;;;;12.82;2.70;;;9.00;99.90;;;;;;4977879;28;20037;-91
2023/12/26 04:05:21;;;;;;;3.85;1.75;;;9.00;99.90;;;;;;4977633;28;20045;-92
2023/12/26 04:07:47;;;;;;;2.83;1.98;;;9.00;99.90;;;;;;4980301;28;20483;-92
2023/12/26 04:10:13;;;;;;;5.55;1.60;;;9.10;99.90;;;;;;4984327;28;20506;-92
2023/12/26 04:12:40;;;;;;;2.97;1.73;;;9.00;99.90;;;;;;4994915;28;20038;-91
2023/12/26 04:15:06;;;;;;;2.97;1.70;;;9.00;99.90;;;;;;4977076;28;20034;-91
2023/12/26 04:17:32;;;;;;;3.35;1.58;;;9.00;99.90;;;;;;4977599;28;20030;-92
2023/12/26 04:19:58;;;;;;;6.07;1.50;;;9.00;99.90;;;;;;4977187;28;20023;-92
2023/12/26 04:22:24;;;;;;;3.33;1.85;;;9.00;99.90;;;;;;4983508;28;20053;-92
2023/12/26 04:24:49;;;;;;;3.80;1.75;;;9.00;99.90;;;;;;4977125;28;20026;-92
2023/12/26 04:27:15;;;;;;;3.60;2.15;;;9.00;99.90;;;;;;4977183;28;20042;-92
2023/12/26 04:29:40;;;;;;;2.55;1.67;;;9.00;99.90;;;;;;4977336;28;20109;-92
2023/12/26 04:32:06;;;;;;;2.90;1.73;;;9.00;99.90;;;;;;4974729;28;20070;-92
2023/12/26 04:34:32;;;;;;;3.75;2.03;;;9.00;99.90;;;;;;4994143;28;20046;-92
2023/12/26 04:36:57;;;;;;;2.55;1.80;;;9.00;99.90;;;;;;4973878;28;20038;-91
2023/12/26 04:39:23;;;;;;;5.53;2.10;;;9.00;99.90;;;;;;4997657;28;20038;-93
2023/12/26 04:41:49;;;;;;;3.65;1.83;;;9.00;99.90;;;;;;4977460;28;20128;-92
2023/12/26 04:44:15;;;;;;;2.65;1.80;;;9.00;99.90;;;;;;4976625;28;20038;-92
2023/12/26 04:46:40;;;;;;;5.93;2.03;;;9.00;99.90;;;;;;4973715;28;20045;-92
2023/12/26 04:49:06;;;;;;;1.98;1.50;;;9.00;99.90;;;;;;4992430;28;20034;-92
2023/12/26 04:51:32;;;;;;;5.97;1.70;;;9.00;99.90;;;;;;4976670;28;20117;-92
2023/12/26 04:53:58;;;;;;;3.80;2.05;;;9.10;99.90;;;;;;4992952;28;20026;-91
2023/12/26 04:56:23;;;;;;;2.17;1.60;;;9.00;99.90;;;;;;4979474;28;20045;-92
2023/12/26 04:58:51;;;;;;;4.05;2.10;;;9.00;99.90;;;;;;4976812;28;20045;-91
2023/12/26 05:01:18;;;;;;;4.32;2.05;;;9.00;99.90;;;;;;4993757;28;20073;-91
2023/12/26 05:03:44;;;;;;;3.03;2.00;;;9.00;99.90;;;;;;4972894;28;20029;-92
2023/12/26 05:06:10;;;;;;;4.25;1.80;;;9.00;99.90;;;;;;4974406;28;20046;-92
2023/12/26 05:08:40;;;;;;;4.65;1.83;;;9.00;99.90;;;;;;4974378;28;20022;-92
2023/12/26 05:11:06;;;;;;;2.30;1.58;;;9.00;99.90;;;;;;4991284;28;20023;-91
2023/12/26 05:13:33;;;;;;;6.05;1.50;;;9.00;99.90;;;;;;4987721;28;20046;-91
2023/12/26 05:16:05;;;;;;;2.95;1.58;;;9.00;99.90;;;;;;4979994;28;20030;-92
2023/12/26 05:18:31;;;;;;;4.78;2.10;;;9.00;99.90;;;;;;4975115;28;20022;-93
2023/12/26 05:20:58;;;;;;;2.60;1.58;;;9.00;99.90;;;;;;4993516;28;20022;-94
2023/12/26 05:23:23;;;;;;;3.17;1.92;;;9.00;99.90;;;;;;4992982;28;20030;-92
2023/12/26 05:25:49;;;;;;;3.85;1.48;;;9.00;99.90;;;;;;4976315;28;20483;-91
2023/12/26 05:28:14;;;;;;;2.17;1.63;;;9.00;99.90;;;;;;4976351;28;20030;-91
2023/12/26 05:30:40;;;;;;;1.52;1.38;;;9.00;99.90;;;;;;4976809;28;20019;-91
2023/12/26 05:33:06;;;;;;;1.95;1.67;;;9.00;99.90;;;;;;4975619;28;20087;-92
2023/12/26 05:35:31;;;;;;;1.65;1.50;;;9.00;99.90;;;;;;4976892;28;20037;-92
2023/12/26 05:37:57;;;;;;;4.80;1.85;;;9.00;99.90;;;;;;4976392;28;20026;-92
2023/12/26 05:40:22;;;;;;;5.20;2.10;;;9.00;99.90;;;;;;4979989;28;20026;-92
2023/12/26 05:42:48;;;;;;;3.95;1.52;;;9.00;99.90;;;;;;4975848;28;20030;-92
2023/12/26 05:45:14;;;;;;;2.88;1.88;;;9.00;99.90;;;;;;4993109;28;20034;-93
2023/12/26 05:47:39;;;;;;;2.80;1.45;;;9.00;99.90;;;;;;4993237;28;20026;-91
2023/12/26 05:50:06;;;;;;;4.82;1.80;;;9.00;99.90;;;;;;4993578;28;20026;-92
2023/12/26 05:52:32;;;;;;;1.63;1.40;;;9.00;99.90;;;;;;4993668;28;20023;-92
2023/12/26 05:54:57;;;;;;;3.67;1.45;;;9.00;99.90;;;;;;4992993;28;20106;-92
2023/12/26 05:57:23;;;;;;;3.83;1.63;;;9.00;99.90;;;;;;4993321;28;20029;-92
2023/12/26 05:59:49;;;;;;;4.95;1.55;;;9.00;99.90;;;;;;4975856;28;20026;-94
2023/12/26 06:02:14;;;;;;;2.78;1.80;;;9.00;99.90;;;;;;4975584;28;20055;-91
2023/12/26 06:04:40;;;;;;;3.80;1.42;;;9.00;99.90;;;;;;4977103;28;20050;-92
2023/12/26 06:07:05;;;;;;;3.63;1.65;;;9.00;99.90;;;;;;4980136;28;20033;-92
2023/12/26 06:09:32;;;;;;;5.57;1.70;;;9.00;99.90;;;;;;4981316;28;20057;-92
2023/12/26 06:11:57;;;;;;;1.95;1.60;;;9.00;99.90;;;;;;4979753;28;20026;-92
2023/12/26 06:14:24;;;;;;;2.72;1.60;;;9.00;99.90;;;;;;4980424;28;20035;-94
2023/12/26 06:16:50;;;;;;;4.72;1.73;;;9.00;99.90;;;;;;4979652;28;20057;-94
2023/12/26 06:19:15;;;;;;;4.18;1.85;;;9.00;99.90;;;;;;4979691;28;20046;-94
2023/12/26 06:21:41;;;;;;;1.98;1.55;;;9.00;99.90;;;;;;4979619;28;20018;-94
2023/12/26 06:24:08;;;;;;;4.65;1.95;;;9.00;99.90;;;;;;4979304;28;20029;-94
2023/12/26 06:26:33;;;;;;;5.07;1.95;;;9.00;99.90;;;;;;4979517;28;20045;-93
2023/12/26 06:28:59;;;;;;;6.25;2.10;;;9.00;99.90;;;;;;4980142;28;20475;-95
2023/12/26 06:31:25;;;;;;;2.28;1.65;;;9.00;99.90;;;;;;4979335;28;20037;-93
2023/12/26 06:33:50;;;;;;;4.35;1.33;;;9.00;99.90;;;;;;4979129;28;20026;-92
2023/12/26 06:36:16;;;;;;;3.47;1.50;;;8.90;99.90;;;;;;4979513;28;20038;-93
2023/12/26 06:38:42;;;;;;;3.60;1.58;;;8.90;99.90;;;;;;4980727;28;20045;-92
2023/12/26 06:41:08;;;;;;;4.00;1.55;;;9.00;99.90;;;;;;4981838;28;20480;-92
2023/12/26 06:43:34;;;;;;;4.68;2.13;;;8.90;99.90;;;;;;4979106;28;20077;-93
2023/12/26 06:46:05;;;;;;;3.28;1.75;;;8.90;99.90;;;;;;4979139;28;20026;-92
2023/12/26 06:48:31;;;;;;;7.00;1.80;;;9.00;99.90;;;;;;4976625;28;20162;-93
2023/12/26 06:50:57;;;;;;;4.93;2.05;;;9.00;99.90;;;;;;4979103;28;20038;-93
2023/12/26 06:53:23;;;;;;;6.75;2.00;;;9.00;99.90;;;;;;4980535;28;20038;-92
2023/12/26 06:55:48;;;;;;;1.55;1.40;;;8.90;99.90;;;;;;4973486;28;20037;-91
2023/12/26 06:58:14;;;;;;;2.25;1.48;;;8.90;99.90;;;;;;4983098;28;20499;-93
2023/12/26 07:00:39;;;;;;;3.75;1.63;;;8.90;99.90;;;;;;4979095;28;20034;-93
2023/12/26 07:03:05;;;;;;;3.22;1.88;;;9.00;99.90;;;;;;4978577;28;20023;-92
2023/12/26 07:05:31;;;;;;;2.15;1.70;;;8.90;99.90;;;;;;4983830;28;20022;-92
2023/12/26 07:07:56;;;;;;;4.82;1.73;;;9.00;99.90;;;;;;4995980;28;20072;-93
2023/12/26 07:10:22;;;;;;;1.80;1.48;;;9.00;99.90;;;;;;4995654;28;20062;-92
2023/12/26 07:12:48;;;;;;;2.60;1.55;;;9.00;99.90;;;;;;4995662;28;20030;-91
2023/12/26 07:15:13;;;;;;;2.42;1.75;;;8.90;99.90;;;;;;4978206;28;20022;-93
2023/12/26 07:17:39;;;;;;;2.88;1.75;;;8.90;99.90;;;;;;4995797;28;20479;-94
2023/12/26 07:20:08;;;;;;;2.85;1.58;;;9.00;99.90;;;;;;4978582;28;20029;-93
2023/12/26 07:22:34;;;;;;;4.15;1.65;;;9.00;99.90;;;;;;4978784;28;20073;-92
2023/12/26 07:24:59;;;;;;;4.40;1.80;;;8.90;99.90;;;;;;4978423;28;20030;-92
2023/12/26 07:27:25;;;;;;;2.50;1.67;;;9.00;99.90;;;;;;4995064;28;20197;-92
2023/12/26 07:29:50;;;;;;;3.63;1.88;;;8.90;99.90;;;;;;4978838;28;20472;-90
2023/12/26 07:32:16;;;;;;;2.00;1.55;;;8.90;99.90;;;;;;4981295;28;20027;-92
2023/12/26 07:34:42;;;;;;;3.83;1.70;;;8.90;99.90;;;;;;4979581;28;20037;-91
2023/12/26 07:37:07;;;;;;;2.25;1.88;;;8.90;99.90;;;;;;4978243;28;20030;-92
2023/12/26 07:39:33;;;;;;;2.30;1.48;;;9.00;99.90;;;;;;4982949;28;20022;-92
2023/12/26 07:42:00;;;;;;;3.63;1.30;;;9.00;99.90;;;;;;4978418;28;20450;-93
2023/12/26 07:44:26;;;;;;;3.55;1.55;;;8.90;99.90;;;;;;4977208;28;20033;-89
2023/12/26 07:46:51;;;;;;;1.70;1.30;;;8.90;99.90;;;;;;4977648;28;20018;-90
2023/12/26 07:49:17;;;;;;;2.38;1.40;;;8.90;99.90;;;;;;4994678;28;20454;-90
2023/12/26 07:51:44;;;;;;;7.55;1.48;;;9.00;99.90;;;;;;4978991;28;20022;-90
2023/12/26 07:54:10;;;;;;;5.63;1.70;;;8.90;99.90;;;;;;4978147;28;20034;-88
2023/12/26 07:56:36;;;;;;;2.33;1.60;;;9.00;99.90;;;;;;4977111;28;20117;-89
2023/12/26 07:59:01;;;;;;;5.40;2.38;;;8.90;99.90;;;;;;4976250;28;20371;-89
2023/12/26 08:01:27;;;;;;;2.10;1.50;;;8.90;99.90;;;;;;4978356;28;20038;-87
2023/12/26 08:03:53;;;;;;;2.83;1.40;;;8.90;99.90;;;;;;4974036;28;20026;-87
2023/12/26 08:06:20;;;;;;;2.47;1.40;;;9.00;99.90;;;;;;4976358;28;20027;-87
2023/12/26 08:08:46;;;;;;;2.60;1.67;;;9.00;99.90;;;;;;4972680;28;20037;-87
2023/12/26 08:11:11;;;;;;;4.72;1.80;;;9.00;99.90;;;;;;4972385;28;20392;-87
2023/12/26 08:13:37;;;;;;;2.40;1.70;;;9.00;99.90;;;;;;4977044;28;20113;-91
2023/12/26 08:16:04;;;;;;;5.63;1.83;;;8.90;99.90;;;;;;4977821;28;20507;-90
2023/12/26 08:18:29;;;;;;;2.15;1.42;;;9.00;99.90;;;;;;4978172;28;20084;-94
2023/12/26 08:20:55;;;;;;;2.75;2.03;;;8.90;99.90;;;;;;4978168;28;20034;-93
2023/12/26 08:23:21;;;;;;;3.97;1.50;;;8.90;99.90;;;;;;4977727;28;20643;-92
2023/12/26 08:25:46;;;;;;;2.45;1.67;;;9.00;99.90;;;;;;4977692;28;20026;-94
2023/12/26 08:28:12;;;;;;;2.90;1.65;;;9.00;99.90;;;;;;4993788;28;20037;-93
2023/12/26 08:30:38;;;;;;;2.60;1.75;;;9.10;99.90;;;;;;4994441;28;20018;-94
2023/12/26 08:33:04;;;;;;;3.60;1.70;;;9.10;99.90;;;;;;4984037;28;20036;-88
2023/12/26 08:35:31;;;;;;;4.28;1.70;;;9.10;99.90;;;;;;4972539;28;20053;-87
2023/12/26 08:37:56;;;;;;;2.90;1.83;;;9.10;99.90;;;;;;4978402;28;20073;-87
2023/12/26 08:40:23;;;;;;;3.78;1.77;;;9.10;99.90;;;;;;4975299;28;20030;-85
2023/12/26 08:42:48;;;;;;;3.00;1.95;;;9.20;99.90;;;;;;4974296;28;20042;-87
2023/12/26 08:45:14;;;;;;;3.15;1.98;;;9.10;99.90;;;;;;4987911;28;20130;-86
2023/12/26 08:47:40;;;;;;;4.22;2.00;;;9.10;99.90;;;;;;4974145;28;20033;-88
2023/12/26 08:50:06;;;;;;;1.80;1.65;;;9.10;99.90;;;;;;4977498;28;20045;-86
2023/12/26 08:52:32;;;;;;;2.53;1.85;;;9.10;99.90;;;;;;4974171;28;20026;-89
2023/12/26 08:54:57;;;;;;;9.13;2.03;;;9.10;99.90;;;;;;4975898;28;20023;-89
2023/12/26 08:57:23;;;;;;;2.38;1.70;;;9.10;99.90;;;;;;4974055;28;20031;-87
2023/12/26 08:59:48;;;;;;;5.38;2.88;;;9.10;99.90;;;;;;4978033;28;20030;-93
2023/12/26 09:02:14;;;;;;;1.90;1.70;;;9.10;99.90;;;;;;4976096;28;20022;-91
2023/12/26 09:04:40;;;;;;;8.15;2.22;;;9.10;99.90;;;;;;4974638;28;20038;-88
2023/12/26 09:07:05;;;;;;;3.17;1.83;;;9.10;99.90;;;;;;4972472;28;20023;-85
2023/12/26 09:09:31;;;;;;;2.67;1.75;;;9.10;99.90;;;;;;4987588;28;20101;-85
2023/12/26 09:11:56;;;;;;;4.03;1.73;;;9.10;99.90;;;;;;4973385;28;20015;-87
2023/12/26 09:14:22;;;;;;;4.22;2.05;;;9.00;99.90;;;;;;4960051;28;20695;-86
2023/12/26 09:16:48;;;;;;;4.35;2.08;;;9.10;99.90;;;;;;4964212;28;20113;-88
2023/12/26 09:19:13;;;;;;;3.75;2.40;;;9.00;99.90;;;;;;4969144;28;20484;-87
2023/12/26 09:21:39;;;;;;;6.05;1.73;;;9.10;99.90;;;;;;4972800;28;20027;-89
2023/12/26 09:24:05;;;;;;;5.40;1.85;;;9.10;99.90;;;;;;4972846;28;20125;-90
2023/12/26 09:26:31;;;;;;;2.95;1.75;;;9.10;99.90;;;;;;4992445;28;20039;-92
2023/12/26 09:28:56;;;;;;;3.28;2.38;;;9.10;99.90;;;;;;4975830;28;20018;-93
2023/12/26 09:31:22;;;;;;;2.88;2.00;;;9.10;99.90;;;;;;4994115;28;20105;-92
2023/12/26 09:33:48;;;;;;;4.43;2.08;;;9.10;99.90;;;;;;4991699;28;20491;-91
2023/12/26 09:36:14;;;;;;;4.55;2.00;;;9.10;99.90;;;;;;4992907;28;20373;-92
2023/12/26 09:38:41;;;;;;;3.60;2.20;;;9.10;99.90;;;;;;4993921;28;20383;-93
2023/12/26 09:41:07;;;;;;;7.72;2.33;;;9.10;99.90;;;;;;4993372;28;20022;-93
2023/12/26 09:43:32;;;;;;;6.53;2.28;;;9.10;99.90;;;;;;4975404;28;20042;-92
2023/12/26 09:45:58;;;;;;;5.68;2.20;;;9.10;99.90;;;;;;4974616;28;20029;-90
2023/12/26 09:48:24;;;;;;;3.65;2.33;;;9.10;99.90;;;;;;4972924;28;20022;-87
2023/12/26 09:50:54;;;;;;;5.18;2.10;;;9.20;99.90;;;;;;4989963;28;20027;-91
2023/12/26 09:53:23;;;;;;;4.72;2.10;;;9.10;99.90;;;;;;4973774;28;20026;-90
2023/12/26 09:55:50;;;;;;;4.85;2.05;;;9.10;99.90;;;;;;4990995;28;20033;-90
2023/12/26 09:58:17;;;;;;;1.48;1.30;;;9.20;99.90;;;;;;4978157;28;20040;-86
2023/12/26 10:00:45;;;;;;;5.90;1.85;;;11.10;99.90;;;;;;4972891;28;20027;-94
2023/12/26 10:03:13;;;;;;;2.35;1.20;;;12.30;99.90;;;;;;4992397;28;20030;-94
2023/12/26 10:05:39;;;;;;;2.10;1.50;;;11.10;99.90;;;;;;4975464;28;20023;-94
2023/12/26 10:08:04;;;;;;;3.42;1.52;;;10.40;99.90;;;;;;4974192;28;20027;-94
2023/12/26 10:10:30;;;;;;;2.40;1.70;;;9.90;99.90;;;;;;4975345;28;20136;-93
2023/12/26 10:12:56;;;;;;;3.20;2.08;;;9.60;99.90;;;;;;4975459;28;20025;-94
2023/12/26 10:15:21;;;;;;;2.55;1.70;;;9.50;99.90;;;;;;4974753;28;20113;-92
2023/12/26 10:17:48;;;;;;;3.35;1.52;;;9.40;99.90;;;;;;4992156;28;20054;-94
2023/12/26 10:20:17;;;;;;;3.70;1.70;;;9.30;99.90;;;;;;4982291;28;20105;-93
2023/12/26 10:22:43;;;;;;;5.50;1.98;;;9.30;99.90;;;;;;4974471;28;20022;-94
2023/12/26 10:25:10;;;;;;;2.88;1.60;;;9.30;99.90;;;;;;4992887;28;20034;-94
2023/12/26 10:27:37;;;;;;;4.03;1.92;;;9.30;99.90;;;;;;4976236;28;20035;-94
2023/12/26 10:30:03;;;;;;;2.10;1.65;;;9.30;99.90;;;;;;4975091;28;20110;-94
2023/12/26 10:32:30;;;;;;;3.92;2.00;;;9.30;99.90;;;;;;4966662;28;20710;-94
2023/12/26 10:34:55;;;;;;;6.15;2.10;;;9.30;99.90;;;;;;4974976;28;20399;-95
2023/12/26 10:37:22;;;;;;;3.55;1.92;;;9.30;99.90;;;;;;4975652;28;20023;-93
2023/12/26 10:39:48;;;;;;;5.50;1.90;;;9.30;99.90;;;;;;4991602;28;20026;-93
2023/12/26 10:42:18;;;;;;;2.80;1.55;;;9.30;99.90;;;;;;4976189;28;20019;-95
2023/12/26 10:45:05;;;;;;;2.13;1.50;;;9.30;99.90;;;;;;4993012;28;20034;-94
2023/12/26 10:47:32;;;;;;;2.40;1.55;;;9.30;99.90;;;;;;4975316;28;20027;-93
2023/12/26 10:49:59;;;;;;;7.25;1.92;;;9.30;99.90;;;;;;4979105;28;20022;-94
2023/12/26 10:52:29;;;;;;;4.25;1.63;;;9.30;99.90;;;;;;4980185;28;20022;-95
2023/12/26 10:55:00;;;;;;;8.70;2.30;;;9.30;99.90;;;;;;4980001;28;20113;-94
2023/12/26 10:57:29;;;;;;;3.05;1.98;;;9.30;99.90;;;;;;4997499;28;20527;-94
2023/12/26 11:00:47;;;;;;;1.92;1.52;;;9.30;99.90;;;;;;4979960;28;20109;-94
2023/12/26 13:52:39;;;;;;;7.55;2.35;;;9.70;99.90;;;;;;4990399;28;20558;-86
2023/12/26 13:55:43;;;;;;;3.85;2.05;;;9.60;99.90;;;;;;4988665;28;20101;-88
2023/12/26 13:58:46;;;;;;;5.63;2.17;;;9.70;99.90;;;;;;4986672;28;20077;-86
2023/12/26 14:01:49;;;;;;;2.78;2.22;;;9.60;99.90;;;;;;4994424;28;20511;-90
2023/12/26 14:04:52;;;;;;;5.45;1.92;;;9.60;99.90;;;;;;4969909;28;20038;-94
2023/12/26 14:07:57;;;;;;;12.85;2.30;;;9.60;99.90;;;;;;4981682;28;20037;-85
2023/12/26 14:11:00;;;;;;;8.73;2.83;;;9.60;99.90;;;;;;4976251;28;20117;-86
2023/12/26 14:14:03;;;;;;;9.40;2.30;;;9.60;99.90;;;;;;4969940;28;20034;-86
2023/12/26 14:17:06;;;;;;;4.18;1.67;;;9.50;99.90;;;;;;4971875;28;20117;-87
2023/12/26 14:20:10;;;;;;;6.28;2.08;;;9.50;99.90;;;;;;4971996;28;20081;-87
2023/12/26 14:23:13;;;;;;;6.60;2.13;;;9.60;99.90;;;;;;4984143;28;20607;-84
2023/12/26 14:26:17;;;;;;;6.32;2.28;;;9.50;99.90;;;;;;4983993;28;20030;-86
2023/12/26 14:29:20;;;;;;;6.45;2.17;;;9.50;99.90;;;;;;4975358;28;20042;-86
2023/12/26 14:32:23;;;;;;;7.22;2.03;;;9.50;99.90;;;;;;4990532;28;20052;-87
2023/12/26 14:35:26;;;;;;;5.47;2.10;;;9.50;99.90;;;;;;4987955;28;20018;-85
2023/12/26 14:38:29;;;;;;;10.25;2.10;;;9.50;99.90;;;;;;4987470;28;20164;-88
2023/12/26 14:41:33;;;;;;;5.03;2.00;;;9.50;99.90;;;;;;4982170;28;20014;-87
2023/12/26 14:44:36;;;;;;;8.52;2.17;;;9.50;99.90;;;;;;4979339;28;20034;-84
2023/12/26 14:47:39;;;;;;;7.57;2.03;;;9.50;99.90;;;;;;4962047;28;20033;-84
2023/12/26 14:50:43;;;;;;;9.20;2.00;;;9.50;99.90;;;;;;4986420;28;20022;-85
2023/12/26 14:53:46;;;;;;;4.88;1.90;;;9.50;99.90;;;;;;4988837;28;20045;-85
2023/12/26 14:56:49;;;;;;;4.57;2.55;;;9.50;99.90;;;;;;4990668;28;20456;-85
2023/12/26 14:59:52;;;;;;;3.00;2.15;;;9.50;99.90;;;;;;4971233;28;20049;-86
2023/12/26 15:02:18;;;;;;;7.32;2.10;;;9.50;99.90;;;;;;4991215;28;20077;-87
2023/12/26 15:04:43;;;;;;;7.85;2.28;;;9.50;99.90;;;;;;4971950;28;20026;-88
2023/12/26 15:07:09;;;;;;;3.75;2.38;;;9.40;99.90;;;;;;4975105;28;20516;-86
2023/12/26 15:09:35;;;;;;;6.97;2.00;;;9.50;99.90;;;;;;4989895;28;20022;-89
2023/12/26 15:12:00;;;;;;;8.43;2.50;;;9.40;99.90;;;;;;4973382;28;20121;-86
2023/12/26 15:14:26;;;;;;;9.30;2.35;;;9.50;99.90;;;;;;4974752;28;20030;-86
2023/12/26 15:16:51;;;;;;;9.27;3.08;;;9.50;99.90;;;;;;4990396;28;20547;-88
2023/12/26 15:19:17;;;;;;;3.85;2.17;;;9.50;99.90;;;;;;4992573;28;20061;-86
2023/12/26 15:21:44;;;;;;;9.50;3.03;;;9.40;99.90;;;;;;4975364;28;20053;-87
2023/12/26 15:24:13;;;;;;;12.15;3.05;;;9.40;99.90;;;;;;4991642;28;20030;-84
2023/12/26 15:26:39;;;;;;;5.55;2.40;;;9.40;99.90;;;;;;4973321;28;20037;-86
2023/12/26 15:29:05;;;;;;;4.60;2.53;;;9.40;99.90;;;;;;4989660;28;20026;-88
2023/12/26 15:31:32;;;;;;;5.32;2.35;;;9.40;99.90;;;;;;4991262;28;20022;-86
2023/12/26 15:33:58;;;;;;;4.68;2.38;;;9.40;99.90;;;;;;4975695;28;20416;-86
2023/12/26 15:36:25;;;;;;;4.78;2.47;;;9.40;99.90;;;;;;4991938;28;20034;-88
2023/12/26 15:38:52;;;;;;;6.20;2.13;;;9.40;99.90;;;;;;4996553;28;20105;-91
2023/12/26 15:41:18;;;;;;;5.53;2.42;;;9.40;99.90;;;;;;4969407;28;20521;-90
2023/12/26 15:43:44;;;;;;;8.68;2.25;;;9.40;99.90;;;;;;4971579;28;20034;-90
2023/12/26 15:46:23;;;;;;;5.75;2.58;;;9.40;99.90;;;;;;4970176;28;20034;-89
2023/12/26 15:48:49;;;;;;;8.73;2.90;;;9.40;99.90;;;;;;4974216;28;20519;-90
2023/12/26 15:51:19;;;;;;;7.20;2.13;;;9.40;99.90;;;;;;4969696;28;20038;-89
2023/12/26 15:53:46;;;;;;;6.65;2.50;;;9.40;99.90;;;;;;4992994;28;20038;-91
2023/12/26 15:56:16;;;;;;;6.63;2.38;;;9.40;99.90;;;;;;4976939;28;20038;-90